Terminal Aerodrome Forecast
Issued by NWS

Home | Current Version | Previous Version | Text Only | Print | Product List | Glossary On
Versions: 1 2 3 4 5 6 7 8 9 10 11 12 13 14 15 16 17 18 19 20 21 22 23
000
FTUS44 KOUN 062320
TAFHBR
TAF
KHBR 062320Z 0700/0724 17018G24KT P6SM SCT050 OVC250
     FM070200 36015G22KT 4SM TSRA BR BKN015 OVC050CB
     FM070600 05011KT 5SM -SHRA BR OVC008=

USA.gov is the U.S. government's official web portal to all federal, state and local government web resources and services.